createdAt,value
2022-09-04T00:02:12.543Z,12.00
2022-09-04T00:05:04.844Z,12.00
2022-09-04T00:08:03.413Z,12.00
2022-09-04T00:10:38.964Z,11.90
2022-09-04T00:13:12.607Z,11.90
2022-09-04T00:15:47.516Z,11.90
2022-09-04T00:18:29.180Z,11.90
2022-09-04T00:21:26.619Z,11.90
2022-09-04T00:24:02.220Z,11.90
2022-09-04T00:26:44.172Z,11.90
2022-09-04T00:29:48.583Z,11.90
2022-09-04T00:32:46.475Z,11.90
2022-09-04T00:35:31.825Z,11.90
2022-09-04T00:38:08.382Z,11.90
2022-09-04T00:40:42.604Z,12.00
2022-09-04T00:43:25.423Z,12.00
2022-09-04T00:46:20.494Z,12.00
2022-09-04T00:49:03.017Z,12.00
2022-09-04T00:51:40.525Z,12.00
2022-09-04T00:54:31.019Z,12.00
2022-09-04T00:57:25.515Z,12.00
2022-09-04T00:59:55.778Z,12.00
2022-09-04T01:03:09.922Z,12.00
2022-09-04T01:05:49.122Z,12.00
2022-09-04T01:08:42.366Z,12.00
2022-09-04T01:11:32.157Z,12.10
2022-09-04T01:14:13.408Z,12.10
2022-09-04T01:16:55.389Z,12.10
2022-09-04T01:19:30.329Z,12.10
2022-09-04T01:22:12.173Z,12.10
2022-09-04T01:24:46.587Z,12.10
2022-09-04T01:27:38.187Z,12.20
2022-09-04T01:30:13.127Z,12.20
2022-09-04T01:32:49.173Z,12.20
2022-09-04T01:35:16.353Z,12.20
2022-09-04T01:38:02.214Z,12.20
2022-09-04T01:40:38.473Z,12.30
2022-09-04T01:43:21.306Z,12.30
2022-09-04T01:45:53.057Z,12.30
2022-09-04T01:48:32.046Z,12.30
2022-09-04T01:51:08.397Z,12.30
2022-09-04T01:53:41.784Z,12.30
2022-09-04T01:56:17.394Z,12.30
2022-09-04T01:58:59.556Z,12.40
2022-09-04T02:01:45.453Z,12.40
2022-09-04T02:04:48.156Z,12.40
2022-09-04T02:07:19.907Z,12.40
2022-09-04T02:09:56.190Z,12.40
2022-09-04T02:12:38.013Z,12.40
2022-09-04T02:15:33.622Z,12.50
2022-09-04T02:18:33.073Z,12.50
2022-09-04T02:21:07.751Z,12.50
2022-09-04T02:23:52.196Z,12.50
2022-09-04T02:26:22.812Z,12.50
2022-09-04T02:29:00.144Z,12.50
2022-09-04T02:31:48.529Z,12.50
2022-09-04T02:34:31.411Z,12.50
2022-09-04T02:37:22.492Z,12.50
2022-09-04T02:40:39.998Z,12.60
2022-09-04T02:43:28.959Z,12.60
2022-09-04T02:46:14.938Z,12.60
2022-09-04T02:49:10.018Z,12.60
2022-09-04T02:52:15.177Z,12.60
2022-09-04T02:55:00.073Z,12.60
2022-09-04T02:57:44.777Z,12.60
2022-09-04T03:00:21.215Z,12.60
2022-09-04T03:03:04.312Z,12.60
2022-09-04T03:05:44.953Z,12.60
2022-09-04T03:08:14.826Z,12.60
2022-09-04T03:11:01.060Z,12.60
2022-09-04T03:13:46.770Z,12.60
2022-09-04T03:16:26.480Z,12.60
2022-09-04T03:19:16.415Z,12.60
2022-09-04T03:21:51.334Z,12.60
2022-09-04T03:24:38.880Z,12.60
2022-09-04T03:27:10.627Z,12.60
2022-09-04T03:30:09.106Z,12.60
2022-09-04T03:33:03.840Z,12.60
2022-09-04T03:35:39.684Z,12.60
2022-09-04T03:38:38.752Z,12.60
2022-09-04T03:41:29.107Z,12.60
2022-09-04T03:44:27.960Z,12.60
2022-09-04T03:46:57.974Z,12.60
2022-09-04T03:49:31.184Z,12.60
2022-09-04T03:52:48.435Z,12.60
2022-09-04T03:55:27.955Z,12.60
2022-09-04T03:58:01.412Z,12.60
2022-09-04T04:00:59.569Z,12.60
2022-09-04T04:04:00.174Z,12.60
2022-09-04T04:06:34.664Z,12.60
2022-09-04T04:09:04.581Z,12.60
2022-09-04T04:11:46.201Z,12.60
2022-09-04T04:14:31.312Z,12.60
2022-09-04T04:17:07.460Z,12.60
2022-09-04T04:19:49.508Z,12.70
2022-09-04T04:22:19.632Z,12.70
2022-09-04T04:24:58.793Z,12.60
2022-09-04T04:27:36.155Z,12.70
2022-09-04T04:30:03.525Z,12.70
2022-09-04T04:32:34.094Z,12.70
2022-09-04T04:35:29.073Z,12.70
2022-09-04T04:38:19.407Z,12.70
2022-09-04T04:42:00.949Z,12.70
2022-09-04T04:45:43.513Z,12.80
2022-09-04T04:48:40.948Z,12.80
2022-09-04T04:51:11.243Z,12.90
2022-09-04T04:54:13.259Z,12.90
2022-09-04T04:57:18.125Z,13.00
2022-09-04T05:00:27.302Z,13.00
2022-09-04T05:03:19.330Z,13.10
2022-09-04T05:06:09.697Z,13.20
2022-09-04T05:09:09.657Z,13.20
2022-09-04T05:12:09.408Z,13.20
2022-09-04T05:14:42.839Z,13.30
2022-09-04T05:17:54.227Z,13.30
2022-09-04T05:20:52.984Z,13.40
2022-09-04T05:23:33.519Z,13.40
2022-09-04T05:26:07.246Z,13.50
2022-09-04T05:28:43.351Z,13.50
2022-09-04T05:31:17.279Z,13.60
2022-09-04T05:34:02.864Z,13.60
2022-09-04T05:36:57.560Z,13.70
2022-09-04T05:39:43.208Z,13.70
2022-09-04T05:42:32.168Z,13.80
2022-09-04T05:45:16.920Z,13.80
2022-09-04T05:48:15.461Z,13.90
2022-09-04T05:50:48.535Z,14.00
2022-09-04T05:53:31.234Z,14.00
2022-09-04T05:56:39.073Z,14.00
2022-09-04T05:59:23.345Z,14.10
2022-09-04T06:01:59.411Z,14.10
2022-09-04T06:04:45.095Z,14.20
2022-09-04T06:07:20.435Z,14.20
2022-09-04T06:10:03.408Z,14.20
2022-09-04T06:12:46.090Z,14.30
2022-09-04T06:15:40.687Z,14.40
2022-09-04T06:18:28.157Z,14.40
2022-09-04T06:21:14.378Z,14.50
2022-09-04T06:24:04.168Z,14.60
2022-09-04T06:26:44.483Z,14.70
2022-09-04T06:29:37.697Z,14.90
2022-09-04T06:32:33.560Z,14.90
2022-09-04T06:35:23.723Z,15.10
2022-09-04T06:38:13.487Z,15.10
2022-09-04T06:40:43.504Z,15.20
2022-09-04T06:43:31.828Z,15.20
2022-09-04T06:46:42.932Z,15.40
2022-09-04T06:49:36.885Z,15.40
2022-09-04T06:52:11.189Z,15.50
2022-09-04T06:55:04.478Z,15.60
2022-09-04T06:57:57.923Z,15.70
2022-09-04T07:00:28.378Z,15.80
2022-09-04T07:03:01.152Z,15.80
2022-09-04T07:05:57.512Z,15.90
2022-09-04T07:08:58.414Z,16.00
2022-09-04T07:12:01.977Z,16.10
2022-09-04T07:14:54.473Z,16.10
2022-09-04T07:17:42.940Z,16.20
2022-09-04T07:20:25.931Z,16.30
2022-09-04T07:23:32.659Z,16.30
2022-09-04T07:26:26.578Z,16.50
2022-09-04T07:29:26.085Z,16.60
2022-09-04T07:32:15.522Z,16.70
2022-09-04T07:35:08.069Z,16.80
2022-09-04T07:37:52.213Z,16.90
2022-09-04T07:40:41.082Z,17.00
2022-09-04T07:43:13.441Z,17.20
2022-09-04T07:45:47.470Z,17.30
2022-09-04T07:48:36.236Z,17.40
2022-09-04T07:51:10.576Z,17.50
2022-09-04T07:53:46.797Z,17.50
2022-09-04T07:56:20.299Z,17.60
2022-09-04T07:59:18.527Z,17.60
2022-09-04T08:01:52.377Z,17.70
2022-09-04T08:04:33.504Z,17.80
2022-09-04T08:07:10.754Z,17.90
2022-09-04T08:10:12.218Z,18.10
2022-09-04T08:13:14.200Z,18.20
2022-09-04T08:15:46.504Z,18.30
2022-09-04T08:18:16.983Z,18.50
2022-09-04T08:21:17.711Z,18.60
2022-09-04T08:24:12.839Z,18.70
2022-09-04T08:27:15.650Z,18.70
2022-09-04T08:30:05.464Z,18.70
2022-09-04T08:32:38.036Z,18.80
2022-09-04T08:35:29.612Z,18.80
2022-09-04T08:38:28.839Z,18.90
2022-09-04T08:41:06.979Z,18.90
2022-09-04T08:43:52.463Z,18.90
2022-09-04T08:46:44.721Z,19.00
2022-09-04T08:50:01.963Z,19.00
2022-09-04T08:53:05.818Z,19.00
2022-09-04T08:55:33.174Z,19.10
2022-09-04T08:58:47.049Z,19.10
2022-09-04T09:01:30.486Z,19.20
2022-09-04T09:04:39.564Z,19.20
2022-09-04T09:07:27.699Z,19.30
2022-09-04T09:10:22.236Z,19.40
2022-09-04T09:13:25.508Z,19.50
2022-09-04T09:16:09.248Z,19.60
2022-09-04T09:19:03.957Z,19.70
2022-09-04T09:21:53.127Z,19.80
2022-09-04T09:24:53.783Z,19.80
2022-09-04T09:27:56.431Z,19.90
2022-09-04T09:30:24.744Z,20.00
2022-09-04T09:33:24.127Z,20.00
2022-09-04T09:36:04.761Z,20.10
2022-09-04T09:38:48.699Z,20.20
2022-09-04T09:41:31.296Z,20.30
2022-09-04T09:43:58.769Z,20.40
2022-09-04T09:46:32.103Z,20.50
2022-09-04T09:49:21.231Z,20.60
2022-09-04T09:52:15.810Z,20.80
2022-09-04T09:54:55.565Z,20.90
2022-09-04T09:57:46.518Z,20.90
2022-09-04T10:00:23.717Z,21.00
2022-09-04T10:03:29.064Z,21.00
2022-09-04T10:06:06.745Z,21.00
2022-09-04T10:08:42.790Z,21.00
2022-09-04T10:11:36.874Z,21.00
2022-09-04T10:14:09.639Z,21.00
2022-09-04T10:16:39.771Z,21.00
2022-09-04T10:19:31.783Z,21.00
2022-09-04T10:22:32.726Z,21.10
2022-09-04T10:25:37.506Z,21.10
2022-09-04T10:28:29.681Z,21.10
2022-09-04T10:31:18.558Z,21.20
2022-09-04T10:34:01.098Z,21.20
2022-09-04T10:36:37.257Z,21.30
2022-09-04T10:39:40.863Z,21.30
2022-09-04T10:42:10.876Z,21.40
2022-09-04T10:44:44.872Z,21.50
2022-09-04T10:47:17.992Z,21.70
2022-09-04T10:49:48.666Z,22.00
2022-09-04T10:52:24.739Z,22.00
2022-09-04T10:54:58.580Z,22.00
2022-09-04T10:58:01.883Z,21.90
2022-09-04T11:00:40.409Z,21.70
2022-09-04T11:03:28.957Z,21.60
2022-09-04T11:06:18.167Z,21.40
2022-09-04T11:09:14.681Z,21.20
2022-09-04T11:12:34.075Z,21.10
2022-09-04T11:15:26.623Z,20.90
2022-09-04T11:17:53.979Z,20.60
2022-09-04T11:20:57.418Z,20.60
2022-09-04T11:23:49.437Z,20.40
2022-09-04T11:26:26.459Z,20.40
2022-09-04T11:29:11.061Z,20.40
2022-09-04T11:31:53.744Z,20.40
2022-09-04T11:34:35.709Z,20.40
2022-09-04T11:37:23.553Z,20.50
2022-09-04T11:39:53.746Z,20.50
2022-09-04T11:42:42.465Z,20.50
2022-09-04T11:45:36.759Z,20.60
2022-09-04T11:48:18.533Z,20.50
2022-09-04T11:51:08.527Z,20.50
2022-09-04T11:53:35.772Z,20.60
2022-09-04T11:56:26.750Z,20.70
2022-09-04T11:59:18.035Z,20.70
2022-09-04T12:02:11.842Z,20.70
2022-09-04T12:05:07.999Z,20.80
2022-09-04T12:07:59.770Z,21.00
2022-09-04T12:10:47.944Z,21.10
2022-09-04T12:13:15.777Z,21.30
2022-09-04T12:15:54.455Z,21.30
2022-09-04T12:18:41.766Z,21.40
2022-09-04T12:21:54.425Z,21.50
2022-09-04T12:24:49.905Z,21.60
2022-09-04T12:27:37.594Z,21.60
2022-09-04T12:30:11.456Z,21.60
2022-09-04T12:32:38.801Z,21.70
2022-09-04T12:35:32.006Z,21.80
2022-09-04T12:38:08.077Z,21.90
2022-09-04T12:40:47.554Z,21.90
2022-09-04T12:43:45.283Z,21.90
2022-09-04T12:46:18.454Z,22.00
2022-09-04T12:48:57.401Z,22.00
2022-09-04T12:51:38.110Z,22.00
2022-09-04T12:54:27.487Z,22.00
2022-09-04T12:57:06.755Z,22.10
2022-09-04T12:59:33.940Z,22.20
2022-09-04T13:02:34.540Z,22.40
2022-09-04T13:05:10.692Z,22.70
2022-09-04T13:08:18.961Z,23.20
2022-09-04T13:11:19.904Z,23.70
2022-09-04T13:13:59.549Z,24.00
2022-09-04T13:16:42.212Z,24.10
2022-09-04T13:19:22.844Z,24.20
2022-09-04T13:22:13.828Z,24.20
2022-09-04T13:24:53.899Z,24.20
2022-09-04T13:27:49.293Z,24.30
2022-09-04T13:30:24.610Z,24.40
2022-09-04T13:33:13.899Z,24.40
2022-09-04T13:36:16.504Z,24.40
2022-09-04T13:39:06.803Z,24.20
2022-09-04T13:41:34.209Z,24.10
2022-09-04T13:44:34.296Z,23.90
2022-09-04T13:47:12.100Z,24.00
2022-09-04T13:49:56.666Z,24.20
2022-09-04T13:52:27.915Z,24.50
2022-09-04T13:55:21.537Z,24.90
2022-09-04T13:57:57.563Z,25.30
2022-09-04T14:00:27.961Z,25.60
2022-09-04T14:03:10.824Z,25.70
2022-09-04T14:05:38.995Z,25.70
2022-09-04T14:08:12.552Z,25.80
2022-09-04T14:10:58.584Z,25.80
2022-09-04T14:13:38.000Z,26.10
2022-09-04T14:16:09.096Z,26.30
2022-09-04T14:18:46.035Z,26.30
2022-09-04T14:21:29.921Z,26.10
2022-09-04T14:24:15.859Z,25.60
2022-09-04T14:26:48.712Z,25.30
2022-09-04T14:29:36.337Z,25.20
2022-09-04T14:32:45.289Z,25.30
2022-09-04T14:35:27.914Z,25.50
2022-09-04T14:38:24.205Z,25.50
2022-09-04T14:41:07.222Z,25.40
2022-09-04T14:44:15.951Z,25.30
2022-09-04T14:47:09.688Z,25.20
2022-09-04T14:49:47.070Z,25.10
2022-09-04T14:52:28.082Z,25.00
2022-09-04T14:54:58.150Z,24.90
2022-09-04T14:57:40.680Z,24.90
2022-09-04T15:00:07.874Z,24.80
2022-09-04T15:03:08.412Z,24.80
2022-09-04T15:05:56.839Z,24.80
2022-09-04T15:08:29.453Z,24.70
2022-09-04T15:11:00.814Z,24.50
2022-09-04T15:13:28.148Z,24.20
2022-09-04T15:16:09.342Z,23.90
2022-09-04T15:19:05.131Z,23.70
2022-09-04T15:21:56.183Z,23.80
2022-09-04T15:24:27.028Z,24.00
2022-09-04T15:26:58.482Z,24.20
2022-09-04T15:29:38.528Z,24.40
2022-09-04T15:32:09.389Z,24.60
2022-09-04T15:34:41.931Z,24.80
2022-09-04T15:37:21.030Z,24.90
2022-09-04T15:39:58.097Z,24.90
2022-09-04T15:43:00.871Z,24.80
2022-09-04T15:45:52.447Z,24.70
2022-09-04T15:48:54.033Z,24.70
2022-09-04T15:51:46.205Z,24.70
2022-09-04T15:54:41.850Z,24.60
2022-09-04T15:57:25.083Z,24.50
2022-09-04T16:00:12.707Z,24.40
2022-09-04T16:03:00.354Z,24.20
2022-09-04T16:05:49.172Z,23.90
2022-09-04T16:08:46.428Z,23.60
2022-09-04T16:11:28.969Z,23.40
2022-09-04T16:14:21.495Z,23.10
2022-09-04T16:17:01.211Z,22.70
2022-09-04T16:19:54.064Z,22.50
2022-09-04T16:22:30.980Z,22.30
2022-09-04T16:25:11.880Z,22.10
2022-09-04T16:27:51.205Z,22.00
2022-09-04T16:30:36.947Z,21.80
2022-09-04T16:33:12.870Z,21.50
2022-09-04T16:35:49.513Z,21.30
2022-09-04T16:38:30.929Z,21.10
2022-09-04T16:41:11.103Z,20.80
2022-09-04T16:43:39.519Z,20.60
2022-09-04T16:46:27.589Z,20.40
2022-09-04T16:49:07.207Z,20.20
2022-09-04T16:51:50.419Z,20.00
2022-09-04T16:54:33.232Z,19.70
2022-09-04T16:57:13.164Z,19.60
2022-09-04T16:59:58.782Z,19.40
2022-09-04T17:03:02.231Z,19.20
2022-09-04T17:05:40.045Z,19.10
2022-09-04T17:08:29.246Z,18.90
2022-09-04T17:11:02.890Z,18.70
2022-09-04T17:13:44.052Z,18.50
2022-09-04T17:16:14.321Z,18.40
2022-09-04T17:18:48.094Z,18.20
2022-09-04T17:27:32.365Z,18.10
2022-09-04T17:28:57.865Z,17.90
2022-09-04T17:29:11.931Z,17.70
2022-09-04T17:31:34.032Z,17.50
2022-09-04T17:40:31.969Z,17.30
2022-09-04T17:40:40.414Z,17.20
2022-09-04T17:40:51.618Z,17.00
2022-09-04T17:43:21.759Z,16.90
2022-09-04T17:46:08.877Z,16.70
2022-09-04T17:48:43.186Z,16.60
2022-09-04T17:51:18.327Z,16.50
2022-09-04T17:53:55.506Z,16.40
2022-09-04T17:56:30.240Z,16.40
2022-09-04T17:59:07.640Z,16.20
2022-09-04T18:01:53.340Z,16.20
2022-09-04T18:04:35.602Z,16.10
2022-09-04T18:08:08.598Z,16.10
2022-09-04T18:10:58.407Z,16.00
2022-09-04T18:13:38.108Z,15.80
2022-09-04T18:16:26.993Z,15.70
2022-09-04T18:19:17.322Z,15.60
2022-09-04T18:21:53.858Z,15.50
2022-09-04T18:24:40.065Z,15.50
2022-09-04T18:27:20.947Z,15.40
2022-09-04T18:33:05.380Z,15.30
2022-09-04T18:37:26.560Z,15.10
2022-09-04T18:37:26.562Z,15.20
2022-09-04T18:39:37.469Z,15.10
2022-09-04T18:46:38.553Z,14.90
2022-09-04T18:50:30.120Z,14.80
2022-09-04T18:50:36.245Z,14.70
2022-09-04T18:53:55.878Z,14.60
2022-09-04T18:56:31.821Z,14.50
2022-09-04T18:59:07.128Z,14.50
2022-09-04T19:01:42.892Z,14.50
2022-09-04T19:04:19.534Z,14.50
2022-09-04T19:06:53.079Z,14.40
2022-09-04T19:09:55.818Z,14.40
2022-09-04T19:12:35.847Z,14.40
2022-09-04T19:15:21.481Z,14.30
2022-09-04T19:18:03.564Z,14.30
2022-09-04T19:20:38.574Z,14.30
2022-09-04T19:23:15.495Z,14.20
2022-09-04T19:25:53.341Z,14.20
2022-09-04T19:28:38.470Z,14.10
2022-09-04T19:31:16.889Z,14.00
2022-09-04T19:34:18.291Z,14.00
2022-09-04T19:37:19.016Z,14.00
2022-09-04T19:46:03.889Z,13.90
2022-09-04T19:46:17.279Z,13.80
2022-09-04T19:46:26.161Z,13.80
2022-09-04T19:51:28.759Z,13.70
2022-09-04T19:53:24.045Z,13.60
2022-09-04T19:55:25.079Z,13.50
2022-09-04T19:58:12.084Z,13.50
2022-09-04T20:00:58.010Z,13.40
2022-09-04T20:03:31.230Z,13.30
2022-09-04T20:06:21.778Z,13.30
2022-09-04T20:09:13.400Z,13.20
2022-09-04T20:11:52.604Z,13.10
2022-09-04T20:14:42.609Z,13.10
2022-09-04T20:17:16.130Z,13.00
2022-09-04T20:19:53.136Z,13.00
2022-09-04T20:22:45.458Z,12.90
2022-09-04T20:25:24.588Z,12.80
2022-09-04T20:28:00.624Z,12.80
2022-09-04T20:30:31.111Z,12.80
2022-09-04T20:33:11.747Z,12.70
2022-09-04T20:35:50.709Z,12.70
2022-09-04T20:38:34.271Z,12.60
2022-09-04T20:41:12.001Z,12.50
2022-09-04T20:43:51.246Z,12.50
2022-09-04T20:52:43.709Z,12.40
2022-09-04T20:52:59.686Z,12.40
2022-09-04T20:53:09.600Z,12.30
2022-09-04T20:55:49.925Z,12.30
2022-09-04T21:03:08.849Z,12.20
2022-09-04T21:03:12.921Z,12.20
2022-09-04T21:04:23.819Z,12.10
2022-09-04T21:07:31.293Z,12.10
2022-09-04T21:10:50.167Z,12.00
2022-09-04T21:13:30.679Z,12.00
2022-09-04T21:16:16.639Z,11.90
2022-09-04T21:19:27.306Z,11.90
2022-09-04T21:22:05.255Z,11.80
2022-09-04T21:25:18.520Z,11.80
2022-09-04T21:28:13.424Z,11.70
2022-09-04T21:31:05.604Z,11.60
2022-09-04T21:33:45.964Z,11.60
2022-09-04T21:36:33.412Z,11.50
2022-09-04T21:39:22.582Z,11.50
2022-09-04T21:41:55.827Z,11.40
2022-09-04T21:45:08.321Z,11.40
2022-09-04T21:48:03.359Z,11.30
2022-09-04T21:50:49.689Z,11.30
2022-09-04T21:53:32.053Z,11.20
2022-09-04T21:59:22.641Z,11.20
2022-09-04T22:02:41.325Z,11.10
2022-09-04T22:02:57.625Z,11.10
2022-09-04T22:05:53.480Z,11.10
2022-09-04T22:13:34.623Z,11.00
2022-09-04T22:13:42.735Z,10.90
2022-09-04T22:14:34.610Z,10.90
2022-09-04T22:17:07.122Z,10.80
2022-09-04T22:19:54.014Z,10.70
2022-09-04T22:22:46.347Z,10.70
2022-09-04T22:25:13.866Z,10.70
2022-09-04T22:28:08.336Z,10.60
2022-09-04T22:30:42.632Z,10.50
2022-09-04T22:33:39.789Z,10.50
2022-09-04T22:36:24.126Z,10.40
2022-09-04T22:39:11.375Z,10.30
2022-09-04T22:41:57.414Z,10.20
2022-09-04T22:44:44.790Z,10.10
2022-09-04T22:47:39.144Z,10.10
2022-09-04T22:50:09.488Z,10.00
2022-09-04T22:53:14.163Z,9.90
2022-09-04T22:56:02.176Z,9.90
2022-09-04T22:59:23.906Z,9.80
2022-09-04T23:02:14.073Z,9.80
2022-09-04T23:04:59.678Z,9.70
2022-09-04T23:13:46.304Z,9.70
2022-09-04T23:13:58.086Z,9.70
2022-09-04T23:14:07.651Z,9.60
2022-09-04T23:17:08.844Z,9.50
2022-09-04T23:26:37.835Z,9.50
2022-09-04T23:26:58.780Z,9.40
2022-09-04T23:26:59.047Z,9.40
2022-09-04T23:29:34.694Z,9.40
2022-09-04T23:32:13.364Z,9.30
2022-09-04T23:35:15.020Z,9.30
2022-09-04T23:38:13.136Z,9.30
2022-09-04T23:41:20.641Z,9.20
2022-09-04T23:44:15.424Z,9.20
2022-09-04T23:47:48.809Z,9.10
2022-09-04T23:50:59.483Z,9.10
2022-09-04T23:54:24.731Z,9.00
2022-09-04T23:57:26.520Z,8.90
